Time;durP1;ratioP1;P1;durP2;ratioP2;P2;SDS_P1;SDS_P2;PMS_P1;PMS_P2;Temp;Humidity;BMP_temperature;BMP_pressure;BME280_temperature;BME280_humidity;BME280_pressure;Samples;Min_cycle;Max_cycle;Signal;HPM_P1;HPM_P2
2023/09/12 00:00:56;;;;;;;6.83;3.93;;;19.70;99.90;;;;;;6214359;23;20165;-90
2023/09/12 00:03:22;;;;;;;7.40;4.47;;;19.70;99.90;;;;;;6215033;23;20219;-90
2023/09/12 00:05:53;;;;;;;5.27;4.20;;;19.70;99.90;;;;;;6215085;23;20176;-90
2023/09/12 00:08:19;;;;;;;7.80;4.90;;;19.80;99.90;;;;;;6214670;23;20157;-87
2023/09/12 00:10:44;;;;;;;6.87;5.17;;;19.80;99.90;;;;;;6190838;23;20240;-90
2023/09/12 00:13:10;;;;;;;7.53;5.57;;;19.80;99.90;;;;;;6214666;23;20180;-90
2023/09/12 00:15:36;;;;;;;7.63;5.60;;;19.80;99.90;;;;;;6214233;23;20195;-91
2023/09/12 00:18:01;;;;;;;7.17;5.37;;;19.70;99.90;;;;;;6214576;23;20161;-90
2023/09/12 00:20:27;;;;;;;7.17;5.50;;;20.20;99.90;;;;;;6190535;23;20165;-90
2023/09/12 00:22:54;;;;;;;7.73;5.50;;;19.60;99.90;;;;;;6214164;23;20600;-90
2023/09/12 00:25:20;;;;;;;9.60;6.00;;;19.70;99.90;;;;;;6214784;23;20153;-90
2023/09/12 00:27:46;;;;;;;10.60;6.60;;;19.70;99.90;;;;;;6190819;23;20204;-90
2023/09/12 00:30:14;;;;;;;8.70;6.20;;;19.70;99.90;;;;;;6214864;23;20161;-91
2023/09/12 00:32:40;;;;;;;8.20;5.93;;;19.70;99.90;;;;;;6214519;23;20164;-89
2023/09/12 00:35:06;;;;;;;12.70;6.37;;;19.60;99.90;;;;;;6213994;23;20187;-91
2023/09/12 00:37:31;;;;;;;10.27;6.90;;;19.60;99.90;;;;;;6190190;23;20173;-91
2023/09/12 00:39:57;;;;;;;9.70;7.00;;;19.50;1.00;;;;;;6217013;23;20215;-91
2023/09/12 00:42:26;;;;;;;14.70;8.77;;;19.40;1.00;;;;;;6227132;23;20199;-91
2023/09/12 00:44:52;;;;;;;15.40;9.27;;;19.30;1.00;;;;;;6218831;23;20203;-92
2023/09/12 00:47:22;;;;;;;14.70;8.57;;;19.20;1.00;;;;;;6191940;23;20177;-91
2023/09/12 00:49:50;;;;;;;13.17;9.87;;;19.20;1.00;;;;;;6214903;23;20157;-92
2023/09/12 00:52:17;;;;;;;12.13;9.60;;;19.10;1.00;;;;;;6215761;23;20662;-85
2023/09/12 00:54:43;;;;;;;9.10;7.87;;;19.10;1.00;;;;;;6215972;23;20164;-91
2023/09/12 00:57:09;;;;;;;13.13;8.87;;;19.10;1.00;;;;;;6215636;23;20740;-88
2023/09/12 00:59:35;;;;;;;10.27;8.57;;;19.10;1.00;;;;;;6214969;23;20169;-92
2023/09/12 01:02:02;;;;;;;10.53;9.23;;;19.20;1.00;;;;;;6193032;23;20239;-88
2023/09/12 01:04:28;;;;;;;12.47;9.20;;;19.20;1.00;;;;;;6190377;23;20490;-87
2023/09/12 01:06:55;;;;;;;12.37;9.80;;;19.10;1.00;;;;;;6190868;23;20224;-89
2023/09/12 01:09:21;;;;;;;13.23;9.40;;;19.20;1.00;;;;;;6189519;23;20190;-90
2023/09/12 01:11:46;;;;;;;13.90;9.30;;;19.10;1.00;;;;;;6215213;23;20165;-92
2023/09/12 01:14:12;;;;;;;11.30;9.20;;;19.10;9.10;;;;;;6214659;23;20506;-89
2023/09/12 01:16:38;;;;;;;12.50;9.10;;;19.10;11.50;;;;;;6213963;23;20601;-90
2023/09/12 01:19:09;;;;;;;11.97;8.50;;;19.00;10.00;;;;;;6191892;23;20164;-90
2023/09/12 01:22:02;;;;;;;13.63;8.77;;;19.00;10.50;;;;;;6215860;23;20254;-91
2023/09/12 01:24:45;;;;;;;14.47;9.93;;;19.10;11.10;;;;;;6190782;23;20152;-90
2023/09/12 01:27:42;;;;;;;13.43;9.50;;;19.10;10.40;;;;;;6216787;23;20502;-89
2023/09/12 01:30:10;;;;;;;12.63;9.30;;;19.10;10.90;;;;;;6190049;23;20164;-87
2023/09/12 01:32:38;;;;;;;15.87;10.87;;;19.10;12.80;;;;;;6217394;23;20165;-90
2023/09/12 01:35:04;;;;;;;12.70;9.40;;;19.10;14.10;;;;;;6190670;23;20244;-90
2023/09/12 01:37:34;;;;;;;11.10;8.50;;;19.10;15.50;;;;;;6191468;23;20264;-89
2023/09/12 01:40:00;;;;;;;12.80;9.83;;;19.10;12.90;;;;;;6215125;23;20160;-91
2023/09/12 01:42:33;;;;;;;15.70;12.43;;;19.10;13.20;;;;;;6191154;23;20534;-90
2023/09/12 01:45:02;;;;;;;16.83;10.23;;;19.10;16.10;;;;;;6191906;23;20138;-89
2023/09/12 01:47:29;;;;;;;14.97;9.97;;;19.10;15.70;;;;;;6192166;23;20251;-90
2023/09/12 01:49:57;;;;;;;12.40;9.83;;;19.10;10.10;;;;;;6191227;23;20157;-90
2023/09/12 01:52:26;;;;;;;12.47;9.43;;;19.10;8.20;;;;;;6216450;23;20247;-91
2023/09/12 01:54:52;;;;;;;15.87;10.23;;;19.00;7.10;;;;;;6213953;23;20197;-90
2023/09/12 01:57:20;;;;;;;17.73;10.77;;;19.10;9.90;;;;;;6215528;23;20332;-89
2023/09/12 01:59:49;;;;;;;13.53;11.10;;;19.00;11.40;;;;;;6215131;23;20515;-89
2023/09/12 02:02:18;;;;;;;16.93;11.20;;;19.00;15.10;;;;;;6191240;23;20537;-88
2023/09/12 02:05:10;;;;;;;19.27;13.03;;;18.90;25.30;;;;;;6188625;23;20157;-85
2023/09/12 02:07:41;;;;;;;19.83;13.70;;;17.80;26.90;;;;;;6193191;23;20185;-90
2023/09/12 02:10:09;;;;;;;17.00;13.80;;;18.90;34.00;;;;;;6216248;23;20153;-87
2023/09/12 02:12:35;;;;;;;21.70;13.47;;;18.80;41.60;;;;;;6165001;23;20268;-87
2023/09/12 02:15:01;;;;;;;18.50;12.83;;;19.00;58.00;;;;;;6215118;23;20161;-88
2023/09/12 02:17:27;;;;;;;14.53;11.73;;;18.80;66.90;;;;;;6198690;23;20196;-88
2023/09/12 02:19:55;;;;;;;15.93;12.80;;;18.80;74.00;;;;;;6200984;23;20188;-90
2023/09/12 02:22:21;;;;;;;18.17;14.20;;;18.80;75.90;;;;;;6195948;23;20204;-93
2023/09/12 02:24:47;;;;;;;17.87;12.57;;;18.90;76.40;;;;;;6190433;23;20473;-88
2023/09/12 02:27:12;;;;;;;18.27;13.53;;;18.80;73.80;;;;;;6166174;23;20185;-91
2023/09/12 02:29:42;;;;;;;17.93;13.27;;;18.70;70.90;;;;;;6190128;23;20217;-89
2023/09/12 02:32:08;;;;;;;16.43;12.17;;;18.60;68.40;;;;;;6214705;23;20161;-89
2023/09/12 02:34:34;;;;;;;17.97;13.27;;;18.80;62.10;;;;;;6215017;23;20168;-88
2023/09/12 02:37:00;;;;;;;19.67;15.23;;;18.70;58.00;;;;;;6189086;23;20637;-90
2023/09/12 02:39:26;;;;;;;22.10;14.87;;;18.70;59.70;;;;;;6215356;23;20161;-88
2023/09/12 02:41:52;;;;;;;20.40;15.23;;;18.70;61.70;;;;;;6202117;23;20200;-91
2023/09/12 02:44:17;;;;;;;20.17;15.37;;;18.70;70.00;;;;;;6165954;23;20463;-90
2023/09/12 02:46:43;;;;;;;18.20;13.50;;;18.60;69.60;;;;;;6190934;23;20181;-92
2023/09/12 02:49:08;;;;;;;18.17;13.50;;;18.60;69.00;;;;;;6190008;23;20228;-90
2023/09/12 02:51:37;;;;;;;21.07;14.67;;;18.60;66.70;;;;;;6189675;23;20212;-89
2023/09/12 02:54:03;;;;;;;18.60;12.50;;;18.60;63.40;;;;;;6214930;23;20164;-88
2023/09/12 02:56:30;;;;;;;19.17;11.93;;;18.60;64.10;;;;;;6191611;23;20176;-92
2023/09/12 02:58:56;;;;;;;17.70;12.97;;;18.50;63.20;;;;;;6191065;23;20286;-90
2023/09/12 03:01:22;;;;;;;17.37;13.37;;;18.50;61.70;;;;;;6190876;23;20157;-92
2023/09/12 03:03:50;;;;;;;19.37;13.00;;;18.40;59.70;;;;;;6190780;23;20210;-88
2023/09/12 03:06:18;;;;;;;20.37;14.00;;;18.60;51.20;;;;;;6189719;23;20259;-88
2023/09/12 03:08:44;;;;;;;21.30;15.07;;;18.50;50.70;;;;;;6191151;23;20153;-89
2023/09/12 03:11:10;;;;;;;17.20;14.13;;;18.50;52.40;;;;;;6216589;23;20213;-92
2023/09/12 03:13:37;;;;;;;22.77;16.10;;;18.40;59.00;;;;;;6191681;23;20153;-91
2023/09/12 03:16:03;;;;;;;22.03;15.33;;;18.50;62.50;;;;;;6215715;23;20183;-89
2023/09/12 03:18:29;;;;;;;21.67;16.57;;;18.40;64.80;;;;;;6216412;23;20244;-90
2023/09/12 03:20:55;;;;;;;21.73;15.87;;;18.40;64.90;;;;;;6191010;23;20466;-91
2023/09/12 03:23:20;;;;;;;18.93;15.63;;;18.40;78.80;;;;;;6190258;23;20184;-90
2023/09/12 03:25:46;;;;;;;20.70;15.00;;;18.60;86.90;;;;;;6189130;23;20181;-90
2023/09/12 03:28:12;;;;;;;24.23;14.80;;;18.30;87.40;;;;;;6190585;23;20153;-90
2023/09/12 03:30:38;;;;;;;20.07;15.20;;;18.40;87.10;;;;;;6191080;23;20156;-89
2023/09/12 03:33:05;;;;;;;20.63;14.07;;;18.40;90.30;;;;;;6215427;23;20247;-90
2023/09/12 03:35:34;;;;;;;20.90;14.83;;;18.40;91.50;;;;;;6215112;23;20165;-86
2023/09/12 03:38:00;;;;;;;21.53;15.53;;;18.30;91.30;;;;;;6189884;23;20168;-91
2023/09/12 03:40:28;;;;;;;21.13;15.70;;;18.50;94.10;;;;;;6189904;23;20180;-92
2023/09/12 03:42:53;;;;;;;22.03;16.00;;;18.40;96.80;;;;;;6215285;23;20190;-91
2023/09/12 03:45:19;;;;;;;26.77;15.63;;;18.30;99.90;;;;;;6189958;23;20180;-91
2023/09/12 03:47:46;;;;;;;21.03;15.87;;;18.40;99.90;;;;;;6190290;23;20180;-90
2023/09/12 03:50:13;;;;;;;20.97;15.30;;;18.40;99.90;;;;;;6215140;23;20167;-91
2023/09/12 03:52:39;;;;;;;23.50;17.13;;;18.40;99.90;;;;;;6214711;23;20203;-89
2023/09/12 03:55:05;;;;;;;21.87;14.80;;;18.30;99.90;;;;;;6190467;23;20161;-90
2023/09/12 03:57:31;;;;;;;21.93;15.33;;;18.40;99.90;;;;;;6189506;23;20181;-91
2023/09/12 04:00:00;;;;;;;24.10;16.17;;;18.40;99.90;;;;;;6190541;23;20157;-90
2023/09/12 04:02:25;;;;;;;20.93;14.93;;;18.40;99.90;;;;;;6191931;23;20239;-89
2023/09/12 04:04:51;;;;;;;22.83;15.60;;;18.50;99.90;;;;;;6191982;23;20153;-90
2023/09/12 04:07:18;;;;;;;21.07;15.63;;;18.30;99.90;;;;;;6192818;23;20177;-90
2023/09/12 04:09:44;;;;;;;23.30;15.53;;;18.40;99.70;;;;;;6193112;23;20164;-90
2023/09/12 04:12:10;;;;;;;20.30;15.43;;;18.30;98.90;;;;;;6216394;23;20165;-91
2023/09/12 04:14:36;;;;;;;22.47;16.07;;;18.40;98.90;;;;;;6190296;23;20164;-92
2023/09/12 04:17:03;;;;;;;22.30;16.77;;;18.40;98.30;;;;;;6189897;23;20180;-91
2023/09/12 04:19:31;;;;;;;23.93;16.20;;;18.40;97.10;;;;;;6190192;23;20614;-91
2023/09/12 04:21:57;;;;;;;25.77;15.83;;;18.40;97.90;;;;;;6191936;23;20696;-91
2023/09/12 04:24:22;;;;;;;23.07;15.37;;;18.30;98.50;;;;;;6216594;23;20161;-92
2023/09/12 04:26:48;;;;;;;25.53;16.60;;;18.30;98.40;;;;;;6190316;23;20169;-91
2023/09/12 04:29:13;;;;;;;22.27;16.27;;;18.20;99.00;;;;;;6188968;23;20159;-91
2023/09/12 04:31:39;;;;;;;27.23;17.13;;;18.30;99.80;;;;;;6189662;23;20183;-91
2023/09/12 04:34:05;;;;;;;26.63;17.30;;;18.30;99.90;;;;;;6215033;23;20157;-92
2023/09/12 04:36:32;;;;;;;21.13;15.57;;;18.30;99.90;;;;;;6191758;23;20177;-91
2023/09/12 04:39:00;;;;;;;20.17;15.33;;;18.30;99.90;;;;;;6196943;23;20161;-91
2023/09/12 04:41:26;;;;;;;22.90;15.67;;;18.20;99.90;;;;;;6203732;23;20232;-92
2023/09/12 04:43:51;;;;;;;20.37;15.43;;;18.80;99.90;;;;;;6191641;23;20148;-92
2023/09/12 04:46:17;;;;;;;21.63;16.63;;;18.50;99.90;;;;;;6189317;23;20184;-93
2023/09/12 04:48:43;;;;;;;21.33;16.10;;;18.30;99.00;;;;;;6206682;23;20617;-88
2023/09/12 04:51:09;;;;;;;22.17;15.90;;;18.20;98.20;;;;;;6214502;23;20161;-87
2023/09/12 04:53:35;;;;;;;25.03;16.83;;;19.20;98.00;;;;;;6189627;23;20536;-89
2023/09/12 04:56:06;;;;;;;20.70;16.57;;;18.40;96.80;;;;;;6187041;23;20177;-89
2023/09/12 04:58:31;;;;;;;20.60;16.50;;;18.00;95.50;;;;;;6213004;23;20492;-88
2023/09/12 05:00:57;;;;;;;28.00;18.67;;;18.30;94.70;;;;;;6213073;23;20157;-88
2023/09/12 05:03:23;;;;;;;25.43;18.10;;;19.00;96.20;;;;;;6189209;23;20176;-89
2023/09/12 05:05:50;;;;;;;23.20;16.87;;;20.00;97.40;;;;;;6188228;23;20176;-89
2023/09/12 05:08:16;;;;;;;28.63;17.43;;;18.70;96.60;;;;;;6189746;23;20156;-89
2023/09/12 05:10:43;;;;;;;28.03;18.57;;;18.50;97.90;;;;;;6212804;23;20161;-89
2023/09/12 05:13:09;;;;;;;25.40;17.87;;;18.40;97.90;;;;;;6188455;23;20169;-88
2023/09/12 05:15:36;;;;;;;24.03;17.30;;;18.40;98.90;;;;;;6188152;23;20165;-87
2023/09/12 05:18:02;;;;;;;22.80;16.43;;;19.40;97.50;;;;;;6189102;23;20228;-85
2023/09/12 05:20:28;;;;;;;23.23;15.03;;;18.40;97.00;;;;;;6192540;23;20160;-92
2023/09/12 05:22:56;;;;;;;24.97;16.60;;;18.40;99.90;;;;;;6195328;23;20212;-91
2023/09/12 05:25:22;;;;;;;33.53;17.17;;;18.40;96.30;;;;;;6195775;23;20177;-87
2023/09/12 05:27:47;;;;;;;32.47;18.03;;;18.10;99.90;;;;;;6189313;23;20228;-85
2023/09/12 05:30:13;;;;;;;23.23;16.70;;;18.40;99.90;;;;;;6190005;23;20193;-85
2023/09/12 05:32:39;;;;;;;26.20;17.00;;;18.10;99.90;;;;;;6214881;23;20248;-84
2023/09/12 05:35:04;;;;;;;23.43;15.53;;;18.10;99.90;;;;;;6215031;23;20165;-88
2023/09/12 05:37:30;;;;;;;17.83;13.77;;;18.10;99.90;;;;;;6195595;23;20180;-90
2023/09/12 05:39:56;;;;;;;19.03;13.77;;;18.50;99.90;;;;;;6195353;23;20164;-84
2023/09/12 05:42:22;;;;;;;17.83;14.20;;;18.10;99.90;;;;;;6194355;23;20177;-89
2023/09/12 05:44:49;;;;;;;22.10;14.90;;;18.00;99.90;;;;;;6192832;23;20478;-89
2023/09/12 05:47:17;;;;;;;17.93;14.20;;;18.00;99.90;;;;;;6195346;23;20177;-88
2023/09/12 05:49:43;;;;;;;20.30;14.83;;;18.20;99.90;;;;;;6191981;23;20189;-86
2023/09/12 05:52:08;;;;;;;20.93;16.57;;;18.80;99.90;;;;;;6215596;23;20672;-88
2023/09/12 05:54:34;;;;;;;23.90;16.20;;;18.10;99.90;;;;;;6191509;23;20196;-91
2023/09/12 05:57:00;;;;;;;20.73;14.80;;;20.10;99.90;;;;;;6191829;23;20523;-87
2023/09/12 05:59:25;;;;;;;19.97;15.63;;;18.70;99.90;;;;;;6193772;23;20180;-89
2023/09/12 06:01:52;;;;;;;22.10;16.33;;;17.90;99.90;;;;;;6217913;23;20239;-90
2023/09/12 06:04:17;;;;;;;22.00;16.07;;;18.50;99.90;;;;;;6195172;23;20157;-92
2023/09/12 06:06:43;;;;;;;19.83;14.70;;;18.90;99.90;;;;;;6170458;23;20181;-89
2023/09/12 06:09:09;;;;;;;20.90;14.90;;;18.00;99.90;;;;;;6194453;23;20157;-88
2023/09/12 06:11:34;;;;;;;17.97;15.33;;;18.10;99.90;;;;;;6219577;23;20157;-86
2023/09/12 06:14:00;;;;;;;20.77;15.90;;;18.10;99.90;;;;;;6192956;23;20498;-88
2023/09/12 06:16:26;;;;;;;16.20;13.97;;;18.20;99.90;;;;;;6219589;23;20177;-89
2023/09/12 06:18:53;;;;;;;18.43;14.00;;;18.10;99.90;;;;;;6195528;23;20156;-87
2023/09/12 06:21:21;;;;;;;21.70;16.67;;;19.60;99.90;;;;;;6194616;23;20163;-92
2023/09/12 06:23:47;;;;;;;21.90;17.33;;;20.40;99.90;;;;;;6217554;23;20223;-89
2023/09/12 06:26:12;;;;;;;24.23;17.30;;;18.10;99.90;;;;;;6218581;23;20238;-89
2023/09/12 06:28:38;;;;;;;24.47;18.40;;;19.60;99.90;;;;;;6195442;23;20161;-92
2023/09/12 06:31:04;;;;;;;22.03;18.00;;;18.90;99.90;;;;;;6195762;23;20159;-88
2023/09/12 06:33:30;;;;;;;25.47;18.47;;;18.20;99.90;;;;;;6197242;23;20153;-90
2023/09/12 06:35:56;;;;;;;23.60;19.23;;;18.20;99.90;;;;;;6196002;23;20177;-92
2023/09/12 06:38:22;;;;;;;26.27;20.50;;;18.50;99.90;;;;;;6193352;23;20187;-88
2023/09/12 06:40:48;;;;;;;33.33;23.43;;;18.30;99.90;;;;;;6202585;23;20169;-86
2023/09/12 06:43:14;;;;;;;28.67;22.67;;;18.20;99.90;;;;;;6193900;23;20192;-91
2023/09/12 06:45:43;;;;;;;29.27;22.13;;;18.30;99.90;;;;;;6192109;23;20692;-84
2023/09/12 06:48:09;;;;;;;29.23;19.70;;;18.20;99.90;;;;;;6214960;23;20198;-84
2023/09/12 06:50:37;;;;;;;27.87;21.40;;;18.40;99.90;;;;;;6189677;23;20165;-87
2023/09/12 06:53:03;;;;;;;27.87;20.83;;;18.30;99.90;;;;;;6188303;23;20165;-90
2023/09/12 06:55:29;;;;;;;29.20;20.00;;;18.30;99.90;;;;;;6214395;23;20191;-86
2023/09/12 06:57:56;;;;;;;26.33;20.30;;;18.50;99.90;;;;;;6189282;23;20247;-82
2023/09/12 07:00:22;;;;;;;27.40;22.03;;;18.20;99.90;;;;;;6190573;23;20153;-83
2023/09/12 07:02:47;;;;;;;29.33;22.77;;;18.30;99.90;;;;;;6188857;23;20191;-85
2023/09/12 07:05:13;;;;;;;29.70;23.23;;;18.40;99.90;;;;;;6189309;23;20161;-85
2023/09/12 07:07:38;;;;;;;30.73;24.17;;;18.40;99.90;;;;;;6188920;23;20180;-83
2023/09/12 07:10:06;;;;;;;37.43;26.47;;;18.50;99.90;;;;;;6188648;23;20225;-85
2023/09/12 07:12:32;;;;;;;34.33;27.63;;;18.60;99.90;;;;;;6190818;23;20161;-87
2023/09/12 07:14:58;;;;;;;33.40;25.97;;;18.70;99.90;;;;;;6189506;23;20167;-83
2023/09/12 07:17:24;;;;;;;32.30;23.63;;;18.70;99.90;;;;;;6188877;23;20188;-84
2023/09/12 07:19:51;;;;;;;29.43;21.40;;;18.70;99.90;;;;;;6189207;23;20165;-89
2023/09/12 07:22:16;;;;;;;31.83;22.93;;;18.70;99.90;;;;;;6190953;23;20195;-85
2023/09/12 07:24:42;;;;;;;26.77;21.63;;;18.70;99.90;;;;;;6188814;23;20156;-85
2023/09/12 07:27:07;;;;;;;27.00;20.67;;;18.70;99.90;;;;;;6189106;23;20177;-84
2023/09/12 07:29:33;;;;;;;29.27;21.03;;;18.80;99.90;;;;;;6188806;23;20601;-85
2023/09/12 07:31:59;;;;;;;32.97;24.20;;;18.80;99.90;;;;;;6188031;23;20609;-90
2023/09/12 07:34:24;;;;;;;28.97;21.93;;;18.90;99.90;;;;;;6189990;23;20272;-91
2023/09/12 07:36:54;;;;;;;28.57;21.00;;;18.90;99.90;;;;;;6215109;23;20649;-86
2023/09/12 07:39:19;;;;;;;29.10;22.07;;;19.00;99.90;;;;;;6209928;23;20161;-88
2023/09/12 07:41:45;;;;;;;29.03;22.50;;;19.00;99.90;;;;;;6212013;23;20181;-85
2023/09/12 07:44:11;;;;;;;33.47;23.17;;;19.10;99.90;;;;;;6237800;23;20240;-86
2023/09/12 07:46:40;;;;;;;27.03;19.23;;;19.10;99.90;;;;;;6213227;23;20191;-88
2023/09/12 07:49:05;;;;;;;26.60;20.50;;;19.20;99.90;;;;;;6212197;23;20175;-86
2023/09/12 07:51:31;;;;;;;27.20;19.80;;;19.30;99.90;;;;;;6211336;23;20152;-84
2023/09/12 07:53:56;;;;;;;23.97;19.10;;;19.30;99.90;;;;;;6237176;23;20157;-84
2023/09/12 07:56:22;;;;;;;18.97;16.67;;;19.40;99.90;;;;;;6212228;23;20157;-86
2023/09/12 07:58:49;;;;;;;21.57;17.57;;;19.40;99.90;;;;;;6210894;23;20169;-84
2023/09/12 08:01:14;;;;;;;19.13;16.27;;;19.60;99.90;;;;;;6210894;23;20166;-88
2023/09/12 08:03:42;;;;;;;22.67;16.27;;;19.70;99.90;;;;;;6234487;23;20188;-85
2023/09/12 08:06:08;;;;;;;19.47;15.57;;;19.90;99.90;;;;;;6210744;23;20180;-85
2023/09/12 08:08:36;;;;;;;19.57;16.17;;;19.90;99.90;;;;;;6207612;23;20319;-86
2023/09/12 08:11:01;;;;;;;20.47;17.47;;;20.00;99.90;;;;;;6212182;23;20149;-88
2023/09/12 08:13:28;;;;;;;19.03;15.40;;;20.10;99.90;;;;;;6213504;23;20195;-91
2023/09/12 08:15:55;;;;;;;18.10;13.93;;;20.30;99.90;;;;;;6238540;23;20169;-93
2023/09/12 08:18:22;;;;;;;20.57;15.20;;;20.40;99.90;;;;;;6238652;23;20181;-89
2023/09/12 08:20:48;;;;;;;23.37;15.37;;;20.50;99.90;;;;;;6213864;23;20149;-89
2023/09/12 08:23:13;;;;;;;21.00;15.70;;;20.60;99.90;;;;;;6206371;23;20207;-90
2023/09/12 08:25:42;;;;;;;17.20;14.17;;;20.70;99.90;;;;;;6189997;23;20235;-92
2023/09/12 08:28:08;;;;;;;17.73;14.37;;;20.80;99.90;;;;;;6190428;23;20153;-91
2023/09/12 08:30:34;;;;;;;20.60;15.83;;;20.90;99.90;;;;;;6187844;23;20175;-90
2023/09/12 08:33:02;;;;;;;20.30;16.63;;;21.00;99.90;;;;;;6213339;23;20187;-92
2023/09/12 08:35:28;;;;;;;19.63;15.17;;;21.00;99.90;;;;;;6212719;23;20160;-90
2023/09/12 08:37:54;;;;;;;20.17;13.97;;;21.10;99.90;;;;;;6213440;23;20544;-91
2023/09/12 08:40:19;;;;;;;17.47;13.20;;;21.10;99.90;;;;;;6200759;23;20172;-90
2023/09/12 08:42:46;;;;;;;17.43;13.13;;;21.10;99.90;;;;;;6188073;23;20185;-89
2023/09/12 08:45:17;;;;;;;20.57;14.63;;;21.30;99.90;;;;;;6189288;23;20232;-92
2023/09/12 08:47:51;;;;;;;16.33;13.23;;;21.40;99.90;;;;;;6189108;23;20680;-92
2023/09/12 08:50:17;;;;;;;15.97;12.23;;;21.40;99.90;;;;;;6189723;23;20138;-91
2023/09/12 08:52:44;;;;;;;15.90;12.13;;;21.50;99.90;;;;;;6212896;23;20160;-92
2023/09/12 08:55:12;;;;;;;15.23;12.07;;;21.50;99.90;;;;;;6191554;23;20621;-90
2023/09/12 08:57:42;;;;;;;15.17;11.90;;;21.70;99.90;;;;;;6188047;23;20181;-89
2023/09/12 09:00:14;;;;;;;17.07;11.87;;;21.70;99.90;;;;;;6213373;23;20165;-91
2023/09/12 09:02:44;;;;;;;15.20;11.70;;;21.80;99.90;;;;;;6189764;23;20173;-89
2023/09/12 09:05:11;;;;;;;14.50;10.73;;;21.90;99.90;;;;;;6191232;23;20164;-91
2023/09/12 09:07:41;;;;;;;14.27;11.27;;;22.00;99.90;;;;;;6191540;23;20197;-91
2023/09/12 09:10:09;;;;;;;15.00;12.40;;;22.10;99.90;;;;;;6192593;23;20598;-91
2023/09/12 09:12:35;;;;;;;13.93;12.13;;;22.10;99.90;;;;;;6215816;23;20502;-90
2023/09/12 09:15:21;;;;;;;16.47;11.77;;;22.10;99.90;;;;;;6215557;23;20161;-89
2023/09/12 09:17:47;;;;;;;16.37;13.10;;;22.10;99.90;;;;;;6193500;23;20173;-90
2023/09/12 09:20:26;;;;;;;18.07;12.70;;;22.00;99.90;;;;;;6191156;23;20646;-93
2023/09/12 09:23:00;;;;;;;14.70;12.17;;;22.00;99.90;;;;;;6188785;23;20604;-91
2023/09/12 09:25:28;;;;;;;16.27;13.33;;;22.00;99.90;;;;;;6236698;23;20165;-88
2023/09/12 09:27:54;;;;;;;14.07;11.63;;;22.50;99.90;;;;;;6210948;23;20172;-91
2023/09/12 09:30:42;;;;;;;12.57;11.27;;;22.10;99.90;;;;;;6190400;23;20161;-91
2023/09/12 09:33:08;;;;;;;12.60;11.17;;;22.20;99.90;;;;;;6190450;23;20172;-90
2023/09/12 09:35:35;;;;;;;15.13;11.07;;;22.30;99.90;;;;;;6189942;23;20161;-89
2023/09/12 09:38:00;;;;;;;13.23;11.40;;;22.30;99.90;;;;;;6214703;23;20156;-91
2023/09/12 09:40:26;;;;;;;13.23;11.00;;;22.40;99.90;;;;;;6189395;23;20183;-89
2023/09/12 09:43:01;;;;;;;13.67;10.03;;;22.40;99.90;;;;;;6164740;23;20533;-91
2023/09/12 09:45:32;;;;;;;12.87;10.70;;;22.40;99.10;;;;;;6214942;23;20192;-88
2023/09/12 09:47:59;;;;;;;13.50;10.63;;;22.30;98.00;;;;;;6191375;23;20593;-90
2023/09/12 09:50:25;;;;;;;18.80;11.23;;;22.40;99.90;;;;;;6189299;23;20168;-92
2023/09/12 09:52:57;;;;;;;14.00;11.67;;;22.50;99.90;;;;;;6190352;23;20240;-89
2023/09/12 09:55:23;;;;;;;10.50;9.03;;;22.40;99.90;;;;;;6165149;23;20164;-88
2023/09/12 09:57:52;;;;;;;11.93;9.03;;;22.40;98.30;;;;;;6190480;23;20212;-90
2023/09/12 10:00:22;;;;;;;11.60;8.20;;;22.50;99.90;;;;;;6214720;23;20172;-91
2023/09/12 10:02:51;;;;;;;11.37;6.67;;;22.60;99.90;;;;;;6190429;23;20234;-90
2023/09/12 10:05:17;;;;;;;7.50;6.70;;;22.70;93.50;;;;;;6190561;23;20645;-89
2023/09/12 10:07:47;;;;;;;8.83;7.73;;;22.80;79.80;;;;;;6189116;23;20236;-90
2023/09/12 10:10:13;;;;;;;8.33;7.40;;;22.80;81.70;;;;;;6164054;23;20184;-88
2023/09/12 10:12:44;;;;;;;9.37;6.83;;;22.90;85.40;;;;;;6213858;23;20165;-86
2023/09/12 10:15:12;;;;;;;10.90;7.20;;;23.00;81.50;;;;;;6203956;23;20149;-88
2023/09/12 10:17:40;;;;;;;8.87;7.07;;;23.00;77.40;;;;;;6214916;23;20200;-89
2023/09/12 10:20:14;;;;;;;6.10;5.47;;;23.10;80.50;;;;;;6190968;23;20157;-91
2023/09/12 10:22:50;;;;;;;5.40;4.83;;;23.20;56.30;;;;;;6191112;23;20195;-90
2023/09/12 10:25:16;;;;;;;7.67;4.80;;;23.20;46.70;;;;;;6215662;23;20149;-89
2023/09/12 10:27:42;;;;;;;5.33;4.77;;;23.20;46.10;;;;;;6191008;23;20187;-89
2023/09/12 10:30:09;;;;;;;6.87;5.77;;;23.20;51.10;;;;;;6215189;23;20158;-91
2023/09/12 10:32:35;;;;;;;6.17;5.33;;;23.20;57.20;;;;;;6191647;23;20262;-91
2023/09/12 10:35:03;;;;;;;6.57;5.20;;;23.30;62.10;;;;;;6217915;23;20167;-90
2023/09/12 10:37:32;;;;;;;4.90;4.37;;;23.30;60.80;;;;;;6218394;23;20200;-90
2023/09/12 10:40:00;;;;;;;7.00;4.10;;;23.30;61.60;;;;;;6197707;23;20176;-90
2023/09/12 10:42:28;;;;;;;4.30;3.90;;;23.40;61.30;;;;;;6191461;23;20168;-91
2023/09/12 10:44:57;;;;;;;4.63;4.10;;;23.40;42.60;;;;;;6191753;23;20153;-92
2023/09/12 10:47:23;;;;;;;4.77;3.10;;;23.40;39.40;;;;;;6215624;23;20180;-90
2023/09/12 10:49:48;;;;;;;3.77;3.37;;;23.50;33.50;;;;;;6215212;23;20203;-88
2023/09/12 10:52:25;;;;;;;6.10;4.40;;;23.50;41.30;;;;;;6191121;23;20153;-91
2023/09/12 10:54:51;;;;;;;6.10;3.90;;;23.70;49.40;;;;;;6190977;23;20149;-89
2023/09/12 10:57:17;;;;;;;5.63;3.90;;;23.80;55.20;;;;;;6191265;23;20177;-90
2023/09/12 11:00:13;;;;;;;5.63;4.03;;;23.90;36.00;;;;;;6214841;23;20164;-92
2023/09/12 11:02:43;;;;;;;5.17;3.97;;;23.90;35.20;;;;;;6191057;23;20169;-90
2023/09/12 11:05:27;;;;;;;5.87;4.40;;;24.00;43.10;;;;;;6218139;23;20161;-90
2023/09/12 11:07:59;;;;;;;7.67;5.47;;;24.10;55.30;;;;;;6195051;23;20223;-92
2023/09/12 11:10:26;;;;;;;6.33;5.43;;;24.20;50.20;;;;;;6215991;23;20207;-90
2023/09/12 11:12:54;;;;;;;6.33;4.60;;;24.20;48.80;;;;;;6192026;23;20159;-91
2023/09/12 11:15:23;;;;;;;7.07;5.27;;;24.30;28.70;;;;;;6215801;23;20172;-91
2023/09/12 11:18:04;;;;;;;7.27;4.57;;;24.20;32.60;;;;;;6215653;23;20264;-89
2023/09/12 11:20:58;;;;;;;8.40;4.43;;;24.20;38.90;;;;;;6216250;23;20171;-90
2023/09/12 11:23:25;;;;;;;4.53;4.03;;;24.30;20.20;;;;;;6216426;23;20284;-90
2023/09/12 11:26:05;;;;;;;5.83;4.23;;;24.30;16.70;;;;;;6192867;23;20177;-90
2023/09/12 11:28:31;;;;;;;6.30;4.50;;;24.30;21.30;;;;;;6192098;23;20144;-89
2023/09/12 11:30:57;;;;;;;5.07;4.57;;;24.30;21.30;;;;;;6191121;23;20239;-89
2023/09/12 11:33:25;;;;;;;5.53;4.83;;;24.30;22.90;;;;;;6215768;23;20165;-88
2023/09/12 11:35:57;;;;;;;5.50;4.60;;;24.40;28.40;;;;;;6214939;23;20653;-88
2023/09/12 11:38:30;;;;;;;6.47;5.50;;;24.50;24.30;;;;;;6215760;23;20620;-90
2023/09/12 11:40:57;;;;;;;5.80;5.10;;;24.60;26.40;;;;;;6216119;23;20176;-90
2023/09/12 11:43:25;;;;;;;6.07;5.50;;;24.60;17.50;;;;;;6215472;23;20185;-88
2023/09/12 11:45:54;;;;;;;4.90;4.13;;;24.70;24.50;;;;;;6192336;23;20169;-91
2023/09/12 11:48:21;;;;;;;5.10;4.30;;;24.80;25.30;;;;;;6215406;23;20164;-89
2023/09/12 11:50:53;;;;;;;5.47;4.17;;;24.90;12.20;;;;;;6191237;23;20167;-89
2023/09/12 11:53:30;;;;;;;4.80;4.03;;;25.00;11.50;;;;;;6192587;23;20208;-90
2023/09/12 11:56:00;;;;;;;4.73;3.63;;;25.00;5.70;;;;;;6214164;23;20180;-89
2023/09/12 11:58:29;;;;;;;7.20;4.43;;;25.20;13.00;;;;;;6216183;23;20161;-89
2023/09/12 12:00:57;;;;;;;4.67;4.00;;;25.40;16.70;;;;;;6215858;23;20165;-90
2023/09/12 12:03:24;;;;;;;6.03;4.10;;;25.50;10.30;;;;;;6191569;23;20184;-90
2023/09/12 12:05:50;;;;;;;6.50;4.53;;;25.60;1.00;;;;;;6216179;23;20254;-90
2023/09/12 12:08:17;;;;;;;5.97;4.72;;;25.50;1.00;;;;;;6215635;23;20157;-88
2023/09/12 12:10:43;;;;;;;4.88;3.85;;;25.40;1.00;;;;;;6216263;23;20153;-89
2023/09/12 12:13:16;;;;;;;6.37;3.10;;;25.50;1.00;;;;;;6216021;23;20161;-90
2023/09/12 12:15:42;;;;;;;4.03;3.20;;;25.50;1.00;;;;;;6215580;23;20165;-90
2023/09/12 12:18:07;;;;;;;4.68;3.15;;;25.40;1.00;;;;;;6215827;23;20505;-90
2023/09/12 12:20:33;;;;;;;4.70;3.20;;;25.40;1.00;;;;;;6216329;23;20188;-88
2023/09/12 12:22:58;;;;;;;4.53;3.35;;;25.40;1.00;;;;;;6193373;23;20177;-90
2023/09/12 12:25:24;;;;;;;4.90;3.65;;;25.40;1.00;;;;;;6216050;23;20225;-90
2023/09/12 12:27:51;;;;;;;5.55;3.22;;;25.50;1.00;;;;;;6214429;23;20181;-85
2023/09/12 12:30:18;;;;;;;3.95;3.38;;;25.60;1.00;;;;;;6212314;23;20187;-84
2023/09/12 12:32:54;;;;;;;5.35;3.45;;;25.70;1.00;;;;;;6226408;23;20167;-90
2023/09/12 12:35:22;;;;;;;4.60;3.35;;;25.90;1.00;;;;;;6216548;23;20247;-90